Дата Пункты Температура Давл., мм. Влажн., % Ветер Погодные явления
Воздуха Воды Направл. Скорость
27.09.17 06:00 Одесса 16.0 19.0 768 46 С-В 9 18 часов
27.09.17 03:00 Одесса 16.0 19.0 768 51 В 9 15 часов
27.09.17 12:00 Одесса 14.0 19.0 768 58 С-В 9 12 часов
27.09.17 09:00 Одесса 13.0 19.0 767 68 С-В 12 09 часов
27.09.17 06:00 Одесса 13.0 20.0 767 67 В 12 06 часов
27.09.17 03:00 Одесса 15.0 20.0 767 64 В 7 03 часа
26.09.17 09:00 Одесса 18.0 20.0 766 54 С-В 11 21 час
26.09.17 06:00 Одесса 19.0 20.0 765 48 В 11 18 часов
26.09.17 03:00 Одесса 19.0 20.0 765 43 В 9 15 часов
26.09.17 12:00 Одесса 17.0 20.0 765 54 С-В 11 12 часов
26.09.17 09:00 Одесса 15.0 20.0 765 68 В 11 09 часов
26.09.17 06:00 Одесса 16.0 20.0 764 67 В 9 06 часов
26.09.17 03:00 Одесса 19.0 20.0 764 61 В 11 03 часа
25.09.17 06:00 Одесса 21.0 20.0 764 67 С-В 2 18 часов
25.09.17 03:00 Одесса 22.0 20.0 764 60 В 3 15 часов
25.09.17 12:00 Одесса 20.0 20.0 765 72 В 5 12 часов
25.09.17 09:00 Одесса 19.0 20.0 764 80 В 6 09 часов
25.09.17 06:00 Одесса 14.0 20.0 764 94 С-З 1 06 часов
25.09.17 03:00 Одесса 15.0 20.0 764 88 З 1 03 часа
24.09.17 09:00 Одесса 16.0 20.0 763 89 Ю-З 2 21 час
Количество строк
1 2 3 4 5 6 7 8 9 10
Page 8 of 284